Time;durP1;ratioP1;P1;durP2;ratioP2;P2;SDS_P1;SDS_P2;PMS_P1;PMS_P2;Temp;Humidity;BMP_temperature;BMP_pressure;BME280_temperature;BME280_humidity;BME280_pressure;Samples;Min_cycle;Max_cycle;Signal;HPM_P1;HPM_P2
2022/11/27 00:01:13;;;;;;;17.80;9.38;;;6.80;99.90;;;;;;5049519;28;20044;-74
2022/11/27 00:03:40;;;;;;;22.25;9.90;;;6.80;99.90;;;;;;5077315;28;20570;-74
2022/11/27 00:06:07;;;;;;;19.83;9.80;;;6.80;99.90;;;;;;5066163;28;20101;-74
2022/11/27 00:08:32;;;;;;;24.00;9.85;;;6.80;99.90;;;;;;5050489;28;20045;-74
2022/11/27 00:11:09;;;;;;;18.58;9.70;;;6.70;99.90;;;;;;5050056;28;20047;-74
2022/11/27 00:13:35;;;;;;;22.92;10.23;;;6.70;99.90;;;;;;5064491;28;20666;-75
2022/11/27 00:16:01;;;;;;;22.45;10.35;;;6.70;99.90;;;;;;5058492;28;20037;-74
2022/11/27 00:18:27;;;;;;;20.83;9.93;;;6.70;99.90;;;;;;5053699;28;20087;-75
2022/11/27 00:20:53;;;;;;;24.90;10.40;;;6.70;99.90;;;;;;5059727;28;20048;-74
2022/11/27 00:23:18;;;;;;;23.70;9.30;;;6.70;99.90;;;;;;5065567;28;20119;-75
2022/11/27 00:25:51;;;;;;;21.58;10.07;;;6.70;99.90;;;;;;5062454;28;20293;-74
2022/11/27 00:28:18;;;;;;;18.27;9.50;;;6.70;99.90;;;;;;5054489;28;20072;-74
2022/11/27 00:30:43;;;;;;;24.25;9.93;;;6.70;99.90;;;;;;5062333;28;20037;-74
2022/11/27 00:33:09;;;;;;;22.70;9.45;;;6.60;99.90;;;;;;5057538;28;20044;-75
2022/11/27 00:35:36;;;;;;;23.75;10.18;;;6.60;99.90;;;;;;5064515;28;20049;-75
2022/11/27 00:38:02;;;;;;;20.42;10.13;;;6.60;99.90;;;;;;5058515;28;20129;-75
2022/11/27 00:40:27;;;;;;;27.00;9.88;;;6.60;99.90;;;;;;5069455;28;20670;-75
2022/11/27 00:42:53;;;;;;;21.15;9.60;;;6.60;99.90;;;;;;5052244;28;20048;-75
2022/11/27 00:45:19;;;;;;;17.98;9.07;;;6.60;99.90;;;;;;5055120;28;20049;-74
2022/11/27 00:47:44;;;;;;;22.63;9.32;;;6.50;99.90;;;;;;5059515;28;20037;-74
2022/11/27 00:50:10;;;;;;;22.70;9.75;;;6.50;99.90;;;;;;5082058;28;20070;-75
2022/11/27 00:52:36;;;;;;;17.92;9.35;;;6.50;99.90;;;;;;5054457;28;20033;-74
2022/11/27 00:55:02;;;;;;;20.23;9.70;;;6.50;99.90;;;;;;5080918;28;20080;-75
2022/11/27 00:57:27;;;;;;;20.65;9.75;;;6.50;99.90;;;;;;5095390;28;20053;-74
2022/11/27 00:59:53;;;;;;;20.95;9.88;;;6.50;99.90;;;;;;5061848;28;20564;-75
2022/11/27 01:02:18;;;;;;;22.20;9.25;;;6.40;99.90;;;;;;5059249;28;20399;-74
2022/11/27 01:04:45;;;;;;;18.95;9.10;;;6.40;99.90;;;;;;5056960;28;20057;-74
2022/11/27 01:07:11;;;;;;;18.85;8.82;;;6.40;99.90;;;;;;5048899;28;20667;-74
2022/11/27 01:09:37;;;;;;;18.83;9.07;;;6.40;99.90;;;;;;5053009;28;20049;-75
2022/11/27 01:12:03;;;;;;;17.52;9.15;;;6.40;99.90;;;;;;5058613;28;20036;-74
2022/11/27 01:14:28;;;;;;;19.27;9.15;;;6.40;99.90;;;;;;5099865;28;20040;-74
2022/11/27 01:16:54;;;;;;;18.50;9.30;;;6.40;99.90;;;;;;5063872;28;20521;-74
2022/11/27 01:19:20;;;;;;;20.00;9.05;;;6.30;99.90;;;;;;5064576;28;20047;-74
2022/11/27 01:21:46;;;;;;;21.15;8.98;;;6.30;99.90;;;;;;5078106;28;20491;-74
2022/11/27 01:24:14;;;;;;;19.70;9.20;;;6.30;99.90;;;;;;5080112;28;20072;-75
2022/11/27 01:26:40;;;;;;;19.00;8.68;;;6.30;99.90;;;;;;5058774;28;20375;-74
2022/11/27 01:29:06;;;;;;;18.77;8.68;;;6.20;99.90;;;;;;5071579;28;20047;-74
2022/11/27 01:31:33;;;;;;;17.42;8.95;;;6.20;99.90;;;;;;5095766;27;20045;-74
2022/11/27 01:34:06;;;;;;;18.40;9.30;;;6.20;99.90;;;;;;5065436;28;20036;-74
2022/11/27 01:36:33;;;;;;;21.52;9.05;;;6.20;99.90;;;;;;5082273;28;20071;-75
2022/11/27 01:38:59;;;;;;;18.63;9.15;;;6.20;99.90;;;;;;5068481;28;20061;-75
2022/11/27 01:41:31;;;;;;;19.13;9.13;;;6.20;99.90;;;;;;5063363;28;20071;-74
2022/11/27 01:43:59;;;;;;;23.27;9.70;;;6.20;99.90;;;;;;5064837;28;20064;-75
2022/11/27 01:46:28;;;;;;;17.02;9.23;;;6.20;99.90;;;;;;5062962;28;20041;-74
2022/11/27 01:48:59;;;;;;;17.85;9.10;;;6.10;99.90;;;;;;5062637;28;20056;-74
2022/11/27 01:51:24;;;;;;;20.60;9.43;;;6.10;99.90;;;;;;5062151;28;20809;-74
2022/11/27 01:53:52;;;;;;;22.80;9.13;;;6.10;99.90;;;;;;5067571;28;20132;-74
2022/11/27 01:56:19;;;;;;;20.40;9.07;;;6.10;99.90;;;;;;5064451;28;20039;-74
2022/11/27 01:58:46;;;;;;;23.33;9.30;;;6.00;99.90;;;;;;5079205;28;20052;-74
2022/11/27 02:01:12;;;;;;;16.10;8.25;;;6.00;99.90;;;;;;5056036;28;20045;-73
2022/11/27 02:03:37;;;;;;;18.33;9.15;;;6.00;99.90;;;;;;5062192;28;20052;-74
2022/11/27 02:06:03;;;;;;;20.05;9.10;;;6.00;99.90;;;;;;5063278;28;20072;-74
2022/11/27 02:08:29;;;;;;;18.70;8.52;;;6.00;99.90;;;;;;5061094;28;20028;-74
2022/11/27 02:11:05;;;;;;;19.83;8.75;;;6.00;99.90;;;;;;5055858;28;20554;-74
2022/11/27 02:14:08;;;;;;;19.65;8.98;;;5.90;99.90;;;;;;5065173;28;20059;-74
2022/11/27 02:17:06;;;;;;;18.25;8.18;;;5.90;99.90;;;;;;5053330;28;20040;-74
2022/11/27 02:19:59;;;;;;;19.70;8.88;;;5.90;99.90;;;;;;5100150;27;20052;-74
2022/11/27 02:22:37;;;;;;;17.63;8.20;;;5.90;99.90;;;;;;5064144;28;20442;-74
2022/11/27 02:25:09;;;;;;;24.30;8.82;;;5.90;99.90;;;;;;5065032;28;20067;-74
2022/11/27 02:27:56;;;;;;;18.90;8.65;;;5.90;99.90;;;;;;5058463;28;21603;-74
2022/11/27 02:30:23;;;;;;;16.02;8.50;;;5.90;99.90;;;;;;5062394;28;20053;-73
2022/11/27 02:32:52;;;;;;;13.60;7.53;;;5.90;99.90;;;;;;5063668;28;20045;-74
2022/11/27 02:35:35;;;;;;;18.17;9.10;;;5.90;99.90;;;;;;5053320;28;20120;-75
2022/11/27 02:38:15;;;;;;;17.65;7.82;;;5.90;99.90;;;;;;5047684;28;20037;-75
2022/11/27 02:40:50;;;;;;;20.50;8.32;;;5.80;99.90;;;;;;5060204;28;20052;-72
2022/11/27 02:43:37;;;;;;;16.73;8.52;;;5.80;99.90;;;;;;5090135;28;20049;-74
2022/11/27 02:46:05;;;;;;;;;;;5.80;99.90;;;;;;5049546;28;20430;-74
2022/11/27 02:48:35;;;;;;;18.23;7.93;;;5.80;99.90;;;;;;5059670;28;19916;-74
2022/11/27 02:51:03;;;;;;;17.30;8.25;;;5.70;99.90;;;;;;5071610;28;20460;-74
2022/11/27 02:53:36;;;;;;;16.02;8.38;;;5.80;99.90;;;;;;5094761;28;20174;-74
2022/11/27 02:56:07;;;;;;;15.15;7.38;;;5.70;99.90;;;;;;5055624;28;20048;-75
2022/11/27 02:58:36;;;;;;;18.70;7.72;;;5.70;99.90;;;;;;5056084;28;20051;-74
2022/11/27 03:01:04;;;;;;;18.13;7.70;;;5.70;99.90;;;;;;5056278;28;20047;-74
2022/11/27 03:03:35;;;;;;;15.10;7.57;;;5.70;99.90;;;;;;5053006;28;20165;-74
2022/11/27 03:06:07;;;;;;;15.52;7.13;;;5.70;99.90;;;;;;5062852;28;20125;-74
2022/11/27 03:08:55;;;;;;;18.20;8.15;;;5.70;99.90;;;;;;5060348;28;20041;-74
2022/11/27 03:11:21;;;;;;;16.33;7.95;;;5.70;99.90;;;;;;5052580;28;20045;-75
2022/11/27 03:13:52;;;;;;;15.65;7.60;;;5.70;99.90;;;;;;5046753;28;20033;-74
2022/11/27 03:16:38;;;;;;;13.88;6.30;;;5.70;99.90;;;;;;5048041;28;20068;-74
2022/11/27 03:19:14;;;;;;;10.77;6.63;;;5.60;99.90;;;;;;5046340;28;20044;-74
2022/11/27 03:21:44;;;;;;;18.10;7.50;;;5.60;99.90;;;;;;5071023;28;20476;-74
2022/11/27 03:24:11;;;;;;;16.75;6.63;;;5.60;99.90;;;;;;5078115;28;20638;-74
2022/11/27 03:26:37;;;;;;;15.07;6.72;;;5.70;99.90;;;;;;5074958;28;20359;-74
2022/11/27 03:29:08;;;;;;;16.70;7.03;;;5.60;99.90;;;;;;5057518;28;20310;-75
2022/11/27 03:31:35;;;;;;;16.33;7.75;;;5.60;99.90;;;;;;5061131;28;20037;-74
2022/11/27 03:34:01;;;;;;;18.02;6.85;;;5.60;99.90;;;;;;5053513;28;20721;-74
2022/11/27 03:36:26;;;;;;;16.73;6.90;;;5.50;99.90;;;;;;5062484;28;20052;-74
2022/11/27 03:38:54;;;;;;;17.75;7.75;;;5.60;99.90;;;;;;5059490;28;20045;-74
2022/11/27 03:41:40;;;;;;;14.60;6.55;;;5.60;99.90;;;;;;5063693;28;20064;-74
2022/11/27 03:44:29;;;;;;;16.90;6.60;;;5.60;99.90;;;;;;5063914;28;20384;-74
2022/11/27 03:47:09;;;;;;;17.95;7.40;;;5.60;99.90;;;;;;5054935;28;20406;-72
2022/11/27 03:49:59;;;;;;;20.25;6.85;;;5.70;99.90;;;;;;5074025;28;20059;-73
2022/11/27 03:52:46;;;;;;;18.58;6.97;;;5.70;99.90;;;;;;5066284;28;20581;-73
2022/11/27 03:55:25;;;;;;;15.55;6.20;;;5.70;99.90;;;;;;5058848;28;20689;-74
2022/11/27 03:58:02;;;;;;;15.80;6.53;;;5.60;99.90;;;;;;5061239;28;20135;-73
2022/11/27 04:00:31;;;;;;;14.60;6.60;;;5.60;99.90;;;;;;5052276;28;20054;-74
2022/11/27 04:02:57;;;;;;;10.75;6.32;;;5.60;99.90;;;;;;5099525;28;20037;-74
2022/11/27 04:05:23;;;;;;;13.77;6.28;;;5.70;99.90;;;;;;5064927;28;20052;-74
2022/11/27 04:07:49;;;;;;;15.57;6.75;;;5.60;99.90;;;;;;5077507;28;20479;-74
2022/11/27 04:10:14;;;;;;;15.48;6.45;;;5.70;99.90;;;;;;5065823;28;20036;-74
2022/11/27 04:12:40;;;;;;;15.30;6.63;;;5.60;99.90;;;;;;5076028;28;20033;-74
2022/11/27 04:15:06;;;;;;;13.43;6.35;;;5.60;99.90;;;;;;5062863;28;20036;-74
2022/11/27 04:17:32;;;;;;;13.48;6.18;;;5.60;99.90;;;;;;5066537;28;20056;-74
2022/11/27 04:19:58;;;;;;;17.13;6.85;;;5.60;99.90;;;;;;5056384;28;20040;-74
2022/11/27 04:22:23;;;;;;;14.15;6.00;;;5.60;99.90;;;;;;5060624;28;20037;-74
2022/11/27 04:24:50;;;;;;;16.40;6.35;;;5.60;99.90;;;;;;5070510;28;20047;-74
2022/11/27 04:27:15;;;;;;;15.65;6.68;;;5.60;99.90;;;;;;5061168;28;20047;-74
2022/11/27 04:29:41;;;;;;;15.98;6.72;;;5.60;99.90;;;;;;5060516;28;20037;-74
2022/11/27 04:32:07;;;;;;;17.17;6.28;;;5.60;99.90;;;;;;5080731;28;20109;-73
2022/11/27 04:34:32;;;;;;;13.88;6.05;;;5.50;99.90;;;;;;5051439;28;20493;-74
2022/11/27 04:36:58;;;;;;;14.75;6.47;;;5.50;99.90;;;;;;5057716;28;20052;-74
2022/11/27 04:39:24;;;;;;;14.93;7.03;;;5.60;99.90;;;;;;5060225;28;20045;-74
2022/11/27 04:41:49;;;;;;;13.77;6.43;;;5.50;99.90;;;;;;5067511;28;20041;-75
2022/11/27 04:44:15;;;;;;;13.82;6.20;;;5.60;99.90;;;;;;5055559;28;20051;-74
2022/11/27 04:46:41;;;;;;;15.50;6.68;;;5.60;99.90;;;;;;5064635;28;20055;-74
2022/11/27 04:49:09;;;;;;;14.35;6.10;;;5.60;99.90;;;;;;5060191;28;20047;-74
2022/11/27 04:51:34;;;;;;;14.27;6.10;;;5.50;99.90;;;;;;5069206;28;20033;-74
2022/11/27 04:54:00;;;;;;;18.23;6.68;;;5.50;99.90;;;;;;5079070;28;20090;-74
2022/11/27 04:56:26;;;;;;;17.70;6.78;;;5.50;99.90;;;;;;5059258;28;20052;-73
2022/11/27 04:58:51;;;;;;;17.27;6.45;;;5.50;99.90;;;;;;5055184;28;20045;-74
2022/11/27 05:01:17;;;;;;;13.82;6.13;;;5.50;99.90;;;;;;5063719;28;20631;-73
2022/11/27 05:03:43;;;;;;;13.82;6.53;;;5.50;99.90;;;;;;5062224;28;20050;-74
2022/11/27 05:06:08;;;;;;;14.80;6.38;;;5.50;99.90;;;;;;5071854;28;20423;-74
2022/11/27 05:08:34;;;;;;;16.48;6.25;;;5.50;99.90;;;;;;5057751;28;20045;-74
2022/11/27 05:11:09;;;;;;;14.32;6.35;;;5.50;99.90;;;;;;5062492;28;20071;-74
2022/11/27 05:13:35;;;;;;;13.75;6.30;;;5.50;99.90;;;;;;5060162;28;20060;-74
2022/11/27 05:16:01;;;;;;;16.42;6.93;;;5.50;99.90;;;;;;5055192;28;20032;-74
2022/11/27 05:18:26;;;;;;;17.73;7.50;;;5.50;99.90;;;;;;5070225;28;20384;-74
2022/11/27 05:21:03;;;;;;;12.02;6.32;;;5.50;99.90;;;;;;5063700;28;20037;-74
2022/11/27 05:23:29;;;;;;;15.90;6.47;;;5.50;99.90;;;;;;5059148;28;20035;-74
2022/11/27 05:25:55;;;;;;;13.07;6.18;;;5.50;99.90;;;;;;5062234;28;20044;-74
2022/11/27 05:28:21;;;;;;;13.02;6.57;;;5.50;99.90;;;;;;5075936;28;20386;-73
2022/11/27 05:30:47;;;;;;;12.70;6.80;;;5.50;99.90;;;;;;5052847;28;20036;-74
2022/11/27 05:33:14;;;;;;;14.13;6.57;;;5.50;99.90;;;;;;5056275;28;20152;-74
2022/11/27 05:35:40;;;;;;;12.57;6.90;;;5.50;99.90;;;;;;5065149;28;20313;-74
2022/11/27 05:38:06;;;;;;;14.95;6.63;;;5.50;99.90;;;;;;5072864;28;20572;-74
2022/11/27 05:40:31;;;;;;;12.55;6.72;;;5.50;99.90;;;;;;5051157;28;20106;-74
2022/11/27 05:42:57;;;;;;;14.65;7.07;;;5.50;99.90;;;;;;5060247;28;20048;-74
2022/11/27 05:45:22;;;;;;;12.52;6.40;;;5.50;99.90;;;;;;5064057;28;20063;-74
2022/11/27 05:47:48;;;;;;;14.18;6.78;;;5.50;99.90;;;;;;5061907;28;20044;-74
2022/11/27 05:50:14;;;;;;;12.75;6.70;;;5.50;99.90;;;;;;5078184;28;20517;-75
2022/11/27 05:52:39;;;;;;;16.60;6.93;;;5.50;99.90;;;;;;5051346;28;20040;-74
2022/11/27 05:55:06;;;;;;;18.55;7.13;;;5.50;99.90;;;;;;5062277;28;20056;-74
2022/11/27 05:57:31;;;;;;;12.95;6.75;;;5.50;99.90;;;;;;5050737;28;20079;-74
2022/11/27 05:59:57;;;;;;;11.25;6.80;;;5.40;99.90;;;;;;5075412;28;20457;-74
2022/11/27 06:02:24;;;;;;;13.70;7.30;;;5.40;99.90;;;;;;5062524;28;20071;-74
2022/11/27 06:04:50;;;;;;;13.87;6.00;;;5.40;99.90;;;;;;5066647;28;20063;-75
2022/11/27 06:07:16;;;;;;;17.38;7.40;;;5.40;99.90;;;;;;5084787;28;20479;-74
2022/11/27 06:09:42;;;;;;;16.15;6.40;;;5.40;99.90;;;;;;5053379;28;20033;-74
2022/11/27 06:12:07;;;;;;;13.25;6.97;;;5.40;99.90;;;;;;5057030;28;20041;-74
2022/11/27 06:14:34;;;;;;;13.88;6.75;;;5.40;99.90;;;;;;5077025;28;20439;-74
2022/11/27 06:17:01;;;;;;;12.45;6.43;;;5.40;99.90;;;;;;5061689;28;20136;-74
2022/11/27 06:19:27;;;;;;;10.82;6.72;;;5.40;99.90;;;;;;5054168;28;20075;-74
2022/11/27 06:21:53;;;;;;;14.65;6.95;;;5.40;99.90;;;;;;5056608;28;20069;-74
2022/11/27 06:24:18;;;;;;;14.98;7.45;;;5.40;99.90;;;;;;5061999;28;20044;-74
2022/11/27 06:26:44;;;;;;;15.43;6.78;;;5.40;99.90;;;;;;5062673;28;20492;-74
2022/11/27 06:29:10;;;;;;;14.80;6.38;;;5.40;99.90;;;;;;5056872;28;20499;-74
2022/11/27 06:31:36;;;;;;;13.68;7.20;;;5.40;99.90;;;;;;5054849;28;20048;-74
2022/11/27 06:34:03;;;;;;;13.95;7.10;;;5.40;99.90;;;;;;5054200;28;20056;-74
2022/11/27 06:36:37;;;;;;;13.52;6.82;;;5.40;99.90;;;;;;5060874;28;20048;-75
2022/11/27 06:39:04;;;;;;;12.20;7.32;;;5.40;99.90;;;;;;5064619;28;20041;-75
2022/11/27 06:41:31;;;;;;;16.52;7.40;;;5.40;99.90;;;;;;5093064;28;20086;-74
2022/11/27 06:43:58;;;;;;;14.18;7.70;;;5.40;99.90;;;;;;5047072;28;20085;-75
2022/11/27 06:46:24;;;;;;;13.80;7.70;;;5.40;99.90;;;;;;5049725;28;20064;-74
2022/11/27 06:48:51;;;;;;;14.30;8.50;;;5.40;99.90;;;;;;5051076;28;20041;-74
2022/11/27 06:51:23;;;;;;;17.52;7.60;;;5.40;99.90;;;;;;5060759;28;20483;-74
2022/11/27 06:53:49;;;;;;;14.10;7.28;;;5.30;99.90;;;;;;5065368;28;20533;-74
2022/11/27 06:56:17;;;;;;;16.05;7.60;;;5.40;99.90;;;;;;5054275;28;20049;-74
2022/11/27 06:58:43;;;;;;;14.30;7.72;;;5.30;99.90;;;;;;5055415;28;20535;-74
2022/11/27 07:01:12;;;;;;;12.80;6.82;;;5.40;99.90;;;;;;5059991;28;20059;-74
2022/11/27 07:03:38;;;;;;;13.00;7.35;;;5.40;99.90;;;;;;5056205;28;20032;-74
2022/11/27 07:06:06;;;;;;;13.60;7.00;;;5.40;99.90;;;;;;5052142;28;20579;-75
2022/11/27 07:08:33;;;;;;;13.18;6.70;;;5.40;99.90;;;;;;5056011;28;20064;-74
2022/11/27 07:11:22;;;;;;;12.35;6.55;;;5.40;99.90;;;;;;5077716;28;20029;-74
2022/11/27 07:13:49;;;;;;;12.70;6.70;;;5.40;99.90;;;;;;5064823;28;20057;-74
2022/11/27 07:16:15;;;;;;;15.95;7.30;;;5.40;99.90;;;;;;5049974;28;20048;-74
2022/11/27 07:18:47;;;;;;;13.35;6.80;;;5.40;99.90;;;;;;5052603;28;20040;-74
2022/11/27 07:21:13;;;;;;;14.60;7.28;;;5.40;99.90;;;;;;5054569;28;20675;-74
2022/11/27 07:23:39;;;;;;;12.52;7.22;;;5.40;99.90;;;;;;5074517;28;20051;-74
2022/11/27 07:26:10;;;;;;;12.57;6.95;;;5.40;99.90;;;;;;5054086;28;20562;-74
2022/11/27 07:28:36;;;;;;;11.55;7.28;;;5.40;99.90;;;;;;5056193;28;20090;-75
2022/11/27 07:31:02;;;;;;;12.25;6.97;;;5.40;99.90;;;;;;5066323;28;20109;-74
2022/11/27 07:33:27;;;;;;;16.33;7.38;;;5.40;99.90;;;;;;5055556;28;20114;-74
2022/11/27 07:36:02;;;;;;;13.60;6.57;;;5.40;99.90;;;;;;5084601;28;20040;-74
2022/11/27 07:38:27;;;;;;;11.70;7.07;;;5.40;99.90;;;;;;5064814;28;20052;-76
2022/11/27 07:40:53;;;;;;;14.23;7.50;;;5.40;99.90;;;;;;5058729;28;20142;-74
2022/11/27 07:43:19;;;;;;;13.25;8.40;;;5.40;99.90;;;;;;5064048;28;20078;-73
2022/11/27 07:45:44;;;;;;;17.38;8.30;;;5.40;99.90;;;;;;5064386;28;20127;-75
2022/11/27 07:48:10;;;;;;;15.30;7.70;;;5.50;99.90;;;;;;5080441;28;20060;-73
2022/11/27 07:50:37;;;;;;;17.33;8.43;;;5.50;99.90;;;;;;5065079;28;20045;-73
2022/11/27 07:53:03;;;;;;;15.45;8.73;;;5.50;99.90;;;;;;5059436;28;20037;-81
2022/11/27 07:55:28;;;;;;;17.27;9.15;;;5.50;99.90;;;;;;5056028;28;20057;-75
2022/11/27 07:57:54;;;;;;;17.75;10.50;;;5.50;99.90;;;;;;5064704;28;20454;-78
2022/11/27 08:00:20;;;;;;;20.35;10.77;;;5.50;99.90;;;;;;5065191;28;20043;-75
2022/11/27 08:02:46;;;;;;;26.77;16.00;;;5.50;99.90;;;;;;5066711;28;20040;-74
2022/11/27 08:05:11;;;;;;;17.25;8.68;;;5.50;99.90;;;;;;5067553;28;20605;-74
2022/11/27 08:07:37;;;;;;;28.90;17.02;;;5.60;99.90;;;;;;5068989;28;20546;-74
2022/11/27 08:10:02;;;;;;;22.42;15.27;;;5.60;99.90;;;;;;5067831;28;20045;-72
2022/11/27 08:12:28;;;;;;;16.85;9.02;;;5.60;99.90;;;;;;5064743;28;20136;-74
2022/11/27 08:14:54;;;;;;;16.02;8.93;;;5.60;99.90;;;;;;5065489;28;20079;-76
2022/11/27 08:17:19;;;;;;;14.95;10.52;;;5.60;99.90;;;;;;5068355;28;20491;-75
2022/11/27 08:19:45;;;;;;;18.38;12.20;;;5.60;99.90;;;;;;5068518;28;20052;-75
2022/11/27 08:22:12;;;;;;;21.55;10.25;;;5.60;99.90;;;;;;5061079;28;20071;-74
2022/11/27 08:24:38;;;;;;;;;;;5.70;99.90;;;;;;5062379;28;20472;-70
2022/11/27 08:27:04;;;;;;;12.80;7.25;;;5.70;99.90;;;;;;5060653;28;19924;-69
2022/11/27 08:29:30;;;;;;;13.80;7.38;;;5.70;99.90;;;;;;5086030;28;20041;-69
2022/11/27 08:31:58;;;;;;;15.07;7.70;;;5.70;99.90;;;;;;5059750;28;20084;-69
2022/11/27 08:34:25;;;;;;;13.38;7.47;;;5.70;99.90;;;;;;5088052;28;20044;-69
2022/11/27 08:36:51;;;;;;;14.15;7.68;;;5.80;99.90;;;;;;5065422;28;20052;-69
2022/11/27 08:39:17;;;;;;;13.85;7.70;;;5.70;99.90;;;;;;5067686;28;20513;-69
2022/11/27 08:41:43;;;;;;;12.23;7.35;;;5.80;99.90;;;;;;5066929;28;20032;-69
2022/11/27 08:44:09;;;;;;;13.40;6.82;;;5.80;99.90;;;;;;5065345;28;20048;-69
2022/11/27 08:46:35;;;;;;;14.93;7.70;;;5.80;99.90;;;;;;5066539;28;20044;-70
2022/11/27 08:49:01;;;;;;;11.30;7.82;;;5.80;99.90;;;;;;5066956;28;20538;-69
2022/11/27 08:51:27;;;;;;;17.25;8.18;;;5.80;99.90;;;;;;5102541;28;20051;-69
2022/11/27 08:53:53;;;;;;;12.32;7.43;;;5.80;99.90;;;;;;5068499;28;20495;-70
2022/11/27 08:56:22;;;;;;;11.82;7.13;;;5.80;99.90;;;;;;5065185;28;20510;-71
2022/11/27 08:58:48;;;;;;;14.05;7.07;;;5.80;99.90;;;;;;5065448;28;20087;-69
2022/11/27 09:01:20;;;;;;;12.38;7.43;;;5.80;99.90;;;;;;5055541;28;20043;-70
2022/11/27 09:03:46;;;;;;;13.30;7.28;;;5.90;99.90;;;;;;5098077;28;20087;-70
2022/11/27 09:06:20;;;;;;;14.60;8.33;;;5.90;99.90;;;;;;5069409;28;20397;-70
2022/11/27 09:08:46;;;;;;;13.70;7.40;;;5.90;99.90;;;;;;5068695;28;20063;-70
2022/11/27 09:11:14;;;;;;;14.98;7.55;;;5.90;99.90;;;;;;5065940;28;20041;-70
2022/11/27 09:13:43;;;;;;;12.70;6.80;;;5.90;99.90;;;;;;5064077;28;20503;-70
2022/11/27 09:16:13;;;;;;;15.63;9.88;;;5.90;99.90;;;;;;5067120;28;20036;-70
2022/11/27 09:18:39;;;;;;;21.08;13.65;;;5.90;99.90;;;;;;5067903;28;20458;-70
2022/11/27 09:21:07;;;;;;;14.32;8.77;;;6.00;99.90;;;;;;5084769;28;20052;-70
2022/11/27 09:23:34;;;;;;;16.35;10.07;;;5.90;99.90;;;;;;5065293;28;20091;-70
2022/11/27 09:26:01;;;;;;;12.65;7.90;;;5.90;99.90;;;;;;5075026;28;20379;-70
2022/11/27 09:28:27;;;;;;;13.80;7.43;;;5.90;99.90;;;;;;5062758;28;20029;-70
2022/11/27 09:30:56;;;;;;;13.32;7.47;;;6.00;99.90;;;;;;5065477;28;20048;-70
2022/11/27 09:33:24;;;;;;;14.50;7.93;;;6.00;99.90;;;;;;5065884;28;20036;-69
2022/11/27 09:35:50;;;;;;;;;;;6.00;99.90;;;;;;5067088;28;20068;-70
2022/11/27 09:38:15;;;;;;;16.17;7.80;;;6.00;99.90;;;;;;5065714;28;20402;-70
2022/11/27 09:40:52;;;;;;;12.68;8.02;;;6.00;99.90;;;;;;5066089;28;20037;-70
2022/11/27 09:43:28;;;;;;;16.95;9.30;;;6.00;99.90;;;;;;5063341;28;20115;-70
2022/11/27 09:45:57;;;;;;;16.67;8.38;;;6.00;99.90;;;;;;5060698;28;20044;-70
2022/11/27 09:48:34;;;;;;;13.52;7.97;;;6.00;99.90;;;;;;5067080;28;20442;-70
2022/11/27 09:51:05;;;;;;;14.95;8.95;;;6.00;99.90;;;;;;5086406;28;20057;-70
2022/11/27 09:53:55;;;;;;;14.18;8.18;;;6.00;99.90;;;;;;5065557;28;20036;-71
2022/11/27 09:56:21;;;;;;;15.02;7.90;;;6.00;99.90;;;;;;5065084;28;20509;-70
2022/11/27 09:58:56;;;;;;;16.05;8.57;;;6.00;99.90;;;;;;5063844;28;20511;-70
2022/11/27 10:01:28;;;;;;;13.25;8.63;;;6.00;99.90;;;;;;5064839;28;20090;-70
2022/11/27 10:03:54;;;;;;;14.30;8.48;;;6.00;99.90;;;;;;5064898;28;20058;-71
2022/11/27 10:06:32;;;;;;;14.25;8.63;;;6.00;99.90;;;;;;5059505;28;20067;-71
2022/11/27 10:09:13;;;;;;;15.73;8.70;;;6.00;99.90;;;;;;5064133;28;20045;-74
2022/11/27 10:11:54;;;;;;;14.02;8.57;;;6.00;99.90;;;;;;5080075;28;20489;-78
2022/11/27 10:14:31;;;;;;;15.10;8.27;;;6.00;99.90;;;;;;5067009;28;20541;-80
2022/11/27 10:17:12;;;;;;;13.68;9.55;;;6.00;99.90;;;;;;5053718;28;20056;-78
2022/11/27 10:20:04;;;;;;;16.65;8.75;;;6.00;99.90;;;;;;5049210;28;20044;-77
2022/11/27 10:22:57;;;;;;;15.80;8.98;;;6.00;99.90;;;;;;5062750;28;20044;-79
2022/11/27 10:25:39;;;;;;;17.55;8.93;;;6.00;99.90;;;;;;5064688;28;20463;-78
2022/11/27 10:28:10;;;;;;;14.25;8.20;;;6.00;99.90;;;;;;5058543;28;20090;-76
2022/11/27 10:31:16;;;;;;;17.98;9.18;;;6.00;99.90;;;;;;5063675;28;20044;-76
2022/11/27 10:33:46;;;;;;;18.50;9.18;;;6.00;99.90;;;;;;5045295;28;20110;-74
2022/11/27 10:36:27;;;;;;;16.70;10.13;;;6.00;99.90;;;;;;5063617;28;20047;-76
2022/11/27 10:38:54;;;;;;;19.15;9.85;;;6.00;99.90;;;;;;5067060;28;20396;-80
2022/11/27 10:41:34;;;;;;;14.35;9.25;;;6.00;99.90;;;;;;5063136;28;20489;-77
2022/11/27 10:44:37;;;;;;;15.57;9.05;;;6.00;99.90;;;;;;5058177;28;20064;-70
2022/11/27 10:47:06;;;;;;;15.60;10.20;;;6.00;99.90;;;;;;5064615;28;20055;-72
2022/11/27 10:49:37;;;;;;;19.27;10.35;;;6.00;99.90;;;;;;5056927;28;20036;-74
2022/11/27 10:52:03;;;;;;;13.50;9.20;;;6.00;99.90;;;;;;5058357;28;20419;-77
2022/11/27 10:54:35;;;;;;;15.00;8.90;;;6.00;99.90;;;;;;5059531;28;20045;-74
2022/11/27 10:57:32;;;;;;;16.67;9.52;;;6.00;99.90;;;;;;5064778;28;20076;-73
2022/11/27 11:00:13;;;;;;;15.30;8.85;;;6.10;99.90;;;;;;5067378;28;20094;-76
2022/11/27 11:02:40;;;;;;;14.98;9.43;;;6.10;99.90;;;;;;5069161;28;20045;-81
2022/11/27 11:05:22;;;;;;;18.23;9.20;;;6.20;99.90;;;;;;5065465;28;20098;-80
2022/11/27 11:07:59;;;;;;;15.82;9.27;;;6.10;99.90;;;;;;5066051;28;20076;-73
2022/11/27 11:10:34;;;;;;;17.60;9.97;;;6.10;99.90;;;;;;5075076;28;20098;-77
2022/11/27 11:13:21;;;;;;;18.67;9.55;;;6.20;99.90;;;;;;5068280;28;20040;-75
2022/11/27 11:16:04;;;;;;;16.98;9.70;;;6.20;99.90;;;;;;5066919;28;20044;-75
2022/11/27 11:18:51;;;;;;;15.63;9.40;;;6.20;99.90;;;;;;5070440;28;20480;-75
2022/11/27 11:21:30;;;;;;;18.08;10.65;;;6.20;99.90;;;;;;5057637;28;20044;-76
2022/11/27 11:24:00;;;;;;;17.05;10.27;;;6.20;99.90;;;;;;5061778;28;20049;-74
2022/11/27 11:26:43;;;;;;;16.13;10.05;;;6.20;99.90;;;;;;5063308;28;20052;-76
2022/11/27 11:29:39;;;;;;;17.00;10.43;;;6.30;99.90;;;;;;5065985;28;20041;-73
2022/11/27 11:32:32;;;;;;;15.87;9.70;;;6.20;99.90;;;;;;5063175;28;20049;-76
2022/11/27 11:35:10;;;;;;;16.10;10.18;;;6.30;99.90;;;;;;5057028;28;20056;-76
2022/11/27 11:37:43;;;;;;;16.55;9.75;;;6.30;99.90;;;;;;5055534;28;20051;-75
2022/11/27 11:40:20;;;;;;;15.05;9.57;;;6.30;99.90;;;;;;5067422;28;20083;-77
2022/11/27 11:42:53;;;;;;;;;;;6.30;99.90;;;;;;5063710;28;20582;-74
2022/11/27 11:45:21;;;;;;;14.85;9.75;;;6.30;99.90;;;;;;5063268;28;19924;-76
2022/11/27 11:47:48;;;;;;;;;;;6.30;99.90;;;;;;5067242;28;20541;-76
2022/11/27 11:50:32;;;;;;;15.25;9.70;;;6.30;99.90;;;;;;5066235;28;19931;-75
2022/11/27 11:53:32;;;;;;;14.70;10.10;;;6.30;99.90;;;;;;5067117;28;20903;-75
2022/11/27 11:56:04;;;;;;;16.42;10.13;;;6.40;99.90;;;;;;5095208;27;20091;-76
2022/11/27 11:58:54;;;;;;;15.00;11.07;;;6.40;99.90;;;;;;5067906;28;20044;-76
2022/11/27 12:01:28;;;;;;;18.25;10.65;;;6.40;99.90;;;;;;5066856;28;20803;-76
2022/11/27 12:04:24;;;;;;;16.35;11.18;;;6.40;99.90;;;;;;5066916;28;20043;-77
2022/11/27 12:07:05;;;;;;;17.13;11.30;;;6.40;99.90;;;;;;5085597;28;20052;-84
2022/11/27 12:09:33;;;;;;;16.13;11.57;;;6.40;99.90;;;;;;5063880;28;20048;-80
2022/11/27 12:12:05;;;;;;;19.08;11.80;;;6.40;99.90;;;;;;5063386;28;20036;-75
2022/11/27 12:14:51;;;;;;;18.00;10.60;;;6.50;99.90;;;;;;5066637;28;20049;-75
2022/11/27 12:17:41;;;;;;;15.30;10.52;;;6.50;99.90;;;;;;5062335;28;20124;-76
2022/11/27 12:20:18;;;;;;;15.85;10.68;;;6.50;99.90;;;;;;5067489;28;20040;-73
2022/11/27 12:22:46;;;;;;;18.52;10.88;;;6.50;99.90;;;;;;5100099;28;20147;-76
2022/11/27 12:25:28;;;;;;;14.07;10.20;;;6.50;99.90;;;;;;5059414;28;20044;-77
2022/11/27 12:28:02;;;;;;;20.90;11.85;;;6.60;99.90;;;;;;5062509;28;20091;-74
2022/11/27 12:30:54;;;;;;;17.20;11.63;;;6.50;99.90;;;;;;5064008;28;20106;-76
2022/11/27 12:33:51;;;;;;;19.08;12.07;;;6.60;99.90;;;;;;5067167;28;20539;-73
2022/11/27 12:36:38;;;;;;;18.48;12.30;;;6.50;99.90;;;;;;5074375;28;20048;-74
2022/11/27 12:39:19;;;;;;;18.17;12.02;;;6.50;99.90;;;;;;5061235;28;20372;-75
2022/11/27 12:41:55;;;;;;;23.70;12.88;;;6.60;99.90;;;;;;5067494;28;20488;-74
2022/11/27 12:44:46;;;;;;;18.20;11.30;;;6.60;99.90;;;;;;5053613;28;20055;-74
2022/11/27 12:47:22;;;;;;;16.63;11.90;;;6.60;99.90;;;;;;5057898;28;20044;-73
2022/11/27 12:49:56;;;;;;;16.98;12.27;;;6.60;99.90;;;;;;5059524;28;20052;-76
2022/11/27 12:52:30;;;;;;;17.45;12.18;;;6.70;99.90;;;;;;5067192;28;20045;-74
2022/11/27 12:55:05;;;;;;;17.15;11.38;;;6.60;99.90;;;;;;5072209;28;20052;-73
2022/11/27 12:58:15;;;;;;;19.17;12.23;;;6.60;99.90;;;;;;5059759;28;20523;-73
2022/11/27 13:00:42;;;;;;;16.48;11.35;;;6.60;99.90;;;;;;5054920;28;20040;-74
2022/11/27 13:03:24;;;;;;;17.10;11.43;;;6.60;99.90;;;;;;5052450;28;20045;-79
2022/11/27 13:06:01;;;;;;;17.13;11.70;;;6.60;99.90;;;;;;5057317;28;20088;-80
2022/11/27 13:08:45;;;;;;;;;;;6.60;99.90;;;;;;5067807;28;20566;-85